Time;durP1;ratioP1;P1;durP2;ratioP2;P2;SDS_P1;SDS_P2;PMS_P1;PMS_P2;Temp;Humidity;BMP_temperature;BMP_pressure;BME280_temperature;BME280_humidity;BME280_pressure;Samples;Min_cycle;Max_cycle;Signal;HPM_P1;HPM_P2
2021/07/17 00:00:24;;;;;;;1999.90;999.90;;;;;;;18.46;50.81;101528.97;4822348;29;98682;-69
2021/07/17 00:02:52;;;;;;;1999.90;999.90;;;;;;;18.49;50.73;101535.28;4823198;29;97905;-69
2021/07/17 00:05:22;;;;;;;1999.90;999.90;;;;;;;18.47;50.34;101522.69;4819277;29;98713;-69
2021/07/17 00:07:51;;;;;;;1999.90;999.90;;;;;;;18.45;50.39;101529.88;4823230;29;99309;-69
2021/07/17 00:10:20;;;;;;;1999.90;999.90;;;;;;;18.43;50.60;101516.38;4823596;29;98062;-69
2021/07/17 00:12:48;;;;;;;1999.90;999.90;;;;;;;18.41;50.04;101510.09;4825505;29;97226;-69
2021/07/17 00:15:18;;;;;;;1999.90;999.90;;;;;;;18.36;50.11;101513.69;4824374;29;98709;-69
2021/07/17 00:17:46;;;;;;;1999.90;999.90;;;;;;;18.36;50.04;101513.69;4823569;29;98104;-69
2021/07/17 00:20:15;;;;;;;1999.90;999.90;;;;;;;18.34;50.12;101511.00;4822034;29;97357;-69
2021/07/17 00:22:43;;;;;;;1999.90;999.90;;;;;;;18.34;49.93;101510.09;4822654;29;97991;-69
2021/07/17 00:25:15;;;;;;;1999.90;999.90;;;;;;;18.36;49.89;101511.91;4852059;28;98102;-70
2021/07/17 00:27:44;;;;;;;1999.90;999.90;;;;;;;18.31;50.02;101505.63;4824873;29;98838;-69
2021/07/17 00:30:13;;;;;;;1999.90;999.90;;;;;;;18.25;49.92;101521.75;4823615;29;97678;-70
2021/07/17 00:32:41;;;;;;;1999.90;999.90;;;;;;;18.21;50.20;101519.06;4825184;29;97127;-69
2021/07/17 00:35:09;;;;;;;1999.90;999.90;;;;;;;18.21;50.22;101513.66;4820401;29;98363;-69
2021/07/17 00:37:37;;;;;;;1999.90;999.90;;;;;;;18.24;50.17;101514.56;4821211;29;99407;-69
2021/07/17 00:40:06;;;;;;;1999.90;999.90;;;;;;;18.21;49.97;101509.19;4824636;29;96854;-70
2021/07/17 00:42:36;;;;;;;1999.90;999.90;;;;;;;18.23;50.17;101509.19;4825720;29;98540;-70
2021/07/17 00:45:04;;;;;;;1999.90;999.90;;;;;;;18.17;50.17;101519.97;4820411;29;97874;-69
2021/07/17 00:47:33;;;;;;;1999.90;999.90;;;;;;;18.15;50.21;101521.75;4824809;29;97673;-69
2021/07/17 00:50:01;;;;;;;1999.90;999.90;;;;;;;18.11;50.52;101514.56;4823709;29;97969;-69
2021/07/17 00:52:29;;;;;;;1999.90;999.90;;;;;;;18.06;50.71;101511.84;4822024;29;97113;-69
2021/07/17 00:54:58;;;;;;;1999.90;999.90;;;;;;;17.99;51.11;101519.00;4847900;28;97770;-70
2021/07/17 00:57:26;;;;;;;1999.90;999.90;;;;;;;17.97;51.07;101528.84;4821606;29;98745;-69
2021/07/17 00:59:58;;;;;;;1999.90;999.90;;;;;;;17.98;51.11;101532.47;4823596;29;97303;-70
2021/07/17 01:02:26;;;;;;;1999.90;999.90;;;;;;;17.93;50.93;101524.34;4821946;29;97654;-69
2021/07/17 01:04:54;;;;;;;1999.90;999.90;;;;;;;17.85;51.14;101531.53;4822793;29;98065;-69
2021/07/17 01:07:25;;;;;;;1999.90;999.90;;;;;;;17.82;51.29;101528.81;4858930;28;96906;-69
2021/07/17 01:09:52;;;;;;;1999.90;999.90;;;;;;;17.82;51.20;101526.09;4827270;29;97764;-69
2021/07/17 01:12:20;;;;;;;1999.90;999.90;;;;;;;17.82;51.01;101520.72;4829994;29;97554;-68
2021/07/17 01:14:48;;;;;;;1999.90;999.90;;;;;;;17.82;50.88;101525.25;4828383;29;97790;-69
2021/07/17 01:17:18;;;;;;;1999.90;999.90;;;;;;;17.81;50.80;101528.81;4828975;29;97856;-68
2021/07/17 01:19:46;;;;;;;1999.90;999.90;;;;;;;17.77;50.60;101529.69;4829039;29;97296;-69
2021/07/17 01:22:15;;;;;;;1999.90;999.90;;;;;;;17.73;50.51;101523.38;4826444;29;97459;-69
2021/07/17 01:24:43;;;;;;;1999.90;999.90;;;;;;;17.74;50.52;101533.28;4842662;29;100585;-68
2021/07/17 01:27:13;;;;;;;1999.90;999.90;;;;;;;17.74;50.44;101533.28;4827621;29;97275;-70
2021/07/17 01:29:41;;;;;;;1999.90;999.90;;;;;;;17.74;50.32;101548.53;4827643;29;97338;-69
2021/07/17 01:32:09;;;;;;;1999.90;999.90;;;;;;;17.78;50.43;101555.72;4828330;29;97356;-69
2021/07/17 01:34:37;;;;;;;1999.90;999.90;;;;;;;17.42;51.17;101547.50;4830459;29;97968;-69
2021/07/17 01:37:04;;;;;;;1999.90;999.90;;;;;;;17.61;50.46;101549.38;4829598;29;97221;-69
2021/07/17 01:39:36;;;;;;;1999.90;999.90;;;;;;;17.58;50.45;101550.25;4823713;29;97750;-69
2021/07/17 01:42:04;;;;;;;1999.90;999.90;;;;;;;17.54;50.33;101555.63;4828879;29;98990;-69
2021/07/17 01:44:40;;;;;;;1999.90;999.90;;;;;;;17.49;50.39;101552.88;4827888;29;97962;-69
2021/07/17 01:47:09;;;;;;;1999.90;999.90;;;;;;;17.39;50.59;101551.06;4828687;29;98708;-68
2021/07/17 01:49:37;;;;;;;1999.90;999.90;;;;;;;17.32;50.86;101543.81;4827036;29;97850;-68
2021/07/17 01:52:05;;;;;;;1999.90;999.90;;;;;;;17.26;50.96;101549.16;4827031;29;97450;-68
2021/07/17 01:54:33;;;;;;;1999.90;999.90;;;;;;;17.26;51.05;101550.94;4856494;28;98132;-68
2021/07/17 01:57:03;;;;;;;1999.90;999.90;;;;;;;17.24;50.97;101544.63;4828900;29;98728;-68
2021/07/17 01:59:36;;;;;;;1999.90;999.90;;;;;;;17.24;50.68;101547.34;4828035;29;97291;-68
2021/07/17 02:02:05;;;;;;;1999.90;999.90;;;;;;;17.18;51.11;101542.84;4823781;29;97522;-68
2021/07/17 02:04:33;;;;;;;1999.90;999.90;;;;;;;17.16;51.16;101525.78;4825477;29;97158;-68
2021/07/17 02:07:01;;;;;;;1999.90;999.90;;;;;;;17.15;51.08;101529.34;4824270;29;98647;-69
2021/07/17 02:09:29;;;;;;;1999.90;999.90;;;;;;;17.18;51.20;101524.00;4827049;29;98258;-68
2021/07/17 02:11:57;;;;;;;1999.90;999.90;;;;;;;17.21;51.42;101528.50;4828247;29;98535;-68
2021/07/17 02:14:26;;;;;;;1999.90;999.90;;;;;;;17.25;51.03;101517.78;4809881;29;98830;-68
2021/07/17 02:16:54;;;;;;;1999.90;999.90;;;;;;;17.25;51.05;101524.94;4826603;29;97701;-69
2021/07/17 02:19:23;;;;;;;1999.90;999.90;;;;;;;17.28;50.99;101525.84;4827934;29;97117;-69
2021/07/17 02:21:52;;;;;;;1999.90;999.90;;;;;;;17.28;50.95;101531.22;4842845;29;97327;-69
2021/07/17 02:24:20;;;;;;;1999.90;999.90;;;;;;;17.31;51.04;101528.53;4825628;29;99058;-69
2021/07/17 02:26:49;;;;;;;1999.90;999.90;;;;;;;16.86;51.86;101521.09;4832762;29;97635;-69
2021/07/17 02:29:17;;;;;;;1999.90;999.90;;;;;;;16.65;52.59;101525.41;4830815;29;97324;-69
2021/07/17 02:31:46;;;;;;;1999.90;999.90;;;;;;;16.53;52.66;101509.16;4833389;29;96983;-69
2021/07/17 02:34:15;;;;;;;1999.90;999.90;;;;;;;16.39;53.00;101505.47;4832579;29;99445;-69
2021/07/17 02:36:42;;;;;;;1999.90;999.90;;;;;;;16.22;53.29;101508.00;4832503;29;97819;-69
2021/07/17 02:39:11;;;;;;;1999.90;999.90;;;;;;;16.10;53.73;101498.00;4832449;29;96978;-70
2021/07/17 02:41:39;;;;;;;1999.90;999.90;;;;;;;16.05;53.79;101507.81;4831804;29;97130;-69
2021/07/17 02:44:07;;;;;;;1999.90;999.90;;;;;;;16.00;53.64;101505.94;4832821;29;97946;-69
2021/07/17 02:46:35;;;;;;;1999.90;999.90;;;;;;;15.93;53.98;101504.97;4833097;29;97922;-69
2021/07/17 02:49:04;;;;;;;1999.90;999.90;;;;;;;15.80;54.30;101492.31;4832865;29;97670;-70
2021/07/17 02:51:32;;;;;;;1999.90;999.90;;;;;;;15.66;54.38;101507.38;4832202;29;97208;-69
2021/07/17 02:54:00;;;;;;;1999.90;999.90;;;;;;;15.60;54.78;101509.06;4832218;29;97603;-69
2021/07/17 02:56:28;;;;;;;1999.90;999.90;;;;;;;15.58;54.43;101510.81;4825255;29;98989;-69
2021/07/17 02:58:55;;;;;;;1999.90;999.90;;;;;;;15.63;54.44;101515.34;4830790;29;97276;-69
2021/07/17 03:01:23;;;;;;;1999.90;999.90;;;;;;;15.68;54.15;101516.34;4830709;29;97019;-69
2021/07/17 03:03:51;;;;;;;1999.90;999.90;;;;;;;15.67;54.55;101532.38;4830128;29;97761;-69
2021/07/17 03:06:20;;;;;;;1999.90;999.90;;;;;;;15.65;54.46;101535.06;4830039;29;97816;-69
2021/07/17 03:08:48;;;;;;;1999.90;999.90;;;;;;;16.07;54.18;101540.97;4832046;29;97190;-69
2021/07/17 03:11:15;;;;;;;1999.90;999.90;;;;;;;15.86;54.63;101550.53;4861239;28;97449;-69
2021/07/17 03:13:43;;;;;;;1999.90;999.90;;;;;;;16.21;53.86;101557.22;4830417;29;97443;-69
2021/07/17 03:16:11;;;;;;;1999.90;999.90;;;;;;;16.01;54.33;101554.31;4831667;29;97635;-69
2021/07/17 03:18:39;;;;;;;1999.90;999.90;;;;;;;15.97;54.34;101555.16;4832839;29;96778;-69
2021/07/17 03:21:07;;;;;;;1999.90;999.90;;;;;;;15.93;54.54;101556.00;4832716;29;97792;-70
2021/07/17 03:23:36;;;;;;;1999.90;999.90;;;;;;;15.95;54.62;101561.38;4860614;28;99032;-69
2021/07/17 03:26:04;;;;;;;1999.90;999.90;;;;;;;15.96;54.49;101557.78;4830211;29;98435;-69
2021/07/17 03:28:32;;;;;;;1999.90;999.90;;;;;;;15.87;54.69;101547.84;4832480;29;96987;-69
2021/07/17 03:30:59;;;;;;;1999.90;999.90;;;;;;;15.77;54.87;101548.66;4831927;29;97453;-69
2021/07/17 03:33:29;;;;;;;1999.90;999.90;;;;;;;15.62;55.12;101555.59;4831761;29;97795;-69
2021/07/17 03:35:57;;;;;;;1999.90;999.90;;;;;;;15.47;55.40;101548.25;4861947;28;100494;-69
2021/07/17 03:38:25;;;;;;;1999.90;999.90;;;;;;;15.32;55.52;101550.72;4830385;29;97271;-70
2021/07/17 03:40:54;;;;;;;1999.90;999.90;;;;;;;15.18;56.08;101552.28;4831866;29;98722;-69
2021/07/17 03:43:22;;;;;;;1999.90;999.90;;;;;;;15.05;56.15;101555.66;4829688;29;98951;-68
2021/07/17 03:45:50;;;;;;;1999.90;999.90;;;;;;;14.97;56.45;101547.47;4832571;29;98737;-70
2021/07/17 03:48:17;;;;;;;1999.90;999.90;;;;;;;14.92;56.33;101543.84;4831702;29;97189;-69
2021/07/17 03:50:45;;;;;;;1999.90;999.90;;;;;;;14.91;56.40;101541.13;4831971;29;97021;-69
2021/07/17 03:53:13;;;;;;;1999.90;999.90;;;;;;;14.82;56.91;101543.69;4832487;29;98815;-69
2021/07/17 03:55:40;;;;;;;1999.90;999.90;;;;;;;14.76;56.90;101539.13;4828134;29;97862;-69
2021/07/17 03:58:09;;;;;;;1999.90;999.90;;;;;;;14.68;57.33;101561.31;4831176;29;97857;-69
2021/07/17 04:00:37;;;;;;;1999.90;999.90;;;;;;;14.60;57.58;101554.91;4829237;29;98157;-69
2021/07/17 04:03:05;;;;;;;1999.90;999.90;;;;;;;14.51;57.40;101550.28;4829168;29;98586;-70
2021/07/17 04:05:33;;;;;;;1999.90;999.90;;;;;;;14.41;57.75;101559.00;4826081;29;98952;-69
2021/07/17 04:08:01;;;;;;;1999.90;999.90;;;;;;;14.39;57.67;101555.41;4859672;28;96914;-69
2021/07/17 04:10:29;;;;;;;1999.90;999.90;;;;;;;14.27;58.32;101556.97;4814680;29;97335;-69
2021/07/17 04:12:56;;;;;;;1999.90;999.90;;;;;;;14.36;57.92;101575.88;4829037;29;98218;-69
2021/07/17 04:15:25;;;;;;;1999.90;999.90;;;;;;;14.34;57.75;101583.88;4830852;29;98577;-69
2021/07/17 04:17:53;;;;;;;1999.90;999.90;;;;;;;14.43;57.87;101583.13;4831680;29;96952;-69
2021/07/17 04:20:21;;;;;;;1999.90;999.90;;;;;;;14.47;57.66;101576.97;4830084;29;97654;-71
2021/07/17 04:22:48;;;;;;;1999.90;999.90;;;;;;;14.42;57.88;101565.28;4824840;29;100605;-70
2021/07/17 04:25:16;;;;;;;1999.90;999.90;;;;;;;14.42;58.04;101559.94;4829348;29;97269;-70
2021/07/17 04:27:44;;;;;;;1999.90;999.90;;;;;;;14.96;57.93;101555.50;4826850;29;96848;-69
2021/07/17 04:30:12;;;;;;;1999.90;999.90;;;;;;;15.15;58.41;101557.59;4830546;29;96818;-70
2021/07/17 04:32:42;;;;;;;1999.90;999.90;;;;;;;14.87;58.74;101550.91;4827767;29;100804;-69
2021/07/17 04:35:10;;;;;;;1999.90;999.90;;;;;;;14.63;59.00;101555.88;4827386;29;97667;-69
2021/07/17 04:37:38;;;;;;;1999.90;999.90;;;;;;;14.53;58.96;101552.97;4828217;29;98159;-69
2021/07/17 04:40:07;;;;;;;1999.90;999.90;;;;;;;14.41;59.58;101547.41;4824804;29;97271;-69
2021/07/17 04:42:34;;;;;;;1999.90;999.90;;;;;;;14.39;59.53;101547.38;4827429;29;97780;-69
2021/07/17 04:45:02;;;;;;;1999.90;999.90;;;;;;;14.31;59.45;101553.47;4826293;29;99086;-70
2021/07/17 04:47:30;;;;;;;1999.90;999.90;;;;;;;14.30;59.40;101557.91;4842743;29;97493;-69
2021/07/17 04:50:02;;;;;;;1999.90;999.90;;;;;;;14.32;59.39;101549.91;4831216;29;97442;-69
2021/07/17 04:52:30;;;;;;;1999.90;999.90;;;;;;;14.26;59.54;101548.06;4831365;29;99042;-69
2021/07/17 04:54:59;;;;;;;1999.90;999.90;;;;;;;14.27;59.49;101543.56;4827738;29;99583;-69
2021/07/17 04:57:27;;;;;;;1999.90;999.90;;;;;;;14.30;59.17;101559.72;4823786;29;98556;-69
2021/07/17 04:59:54;;;;;;;1999.90;999.90;;;;;;;14.26;59.56;101553.41;4826076;29;98101;-70
2021/07/17 05:02:22;;;;;;;1999.90;999.90;;;;;;;14.27;59.48;101541.81;4827318;29;100611;-69
2021/07/17 05:04:50;;;;;;;1999.90;999.90;;;;;;;14.20;59.73;101552.38;4856653;28;98977;-69
2021/07/17 05:07:19;;;;;;;1999.90;999.90;;;;;;;14.70;59.56;101549.72;4827656;29;97414;-69
2021/07/17 05:09:47;;;;;;;1999.90;999.90;;;;;;;14.53;59.81;101553.88;4830562;29;97214;-70
2021/07/17 05:12:15;;;;;;;1999.90;999.90;;;;;;;14.93;59.74;101547.44;4827701;29;98896;-69
2021/07/17 05:14:46;;;;;;;1999.90;999.90;;;;;;;15.05;59.63;101550.28;4830339;29;98761;-69
2021/07/17 05:17:13;;;;;;;1999.90;999.90;;;;;;;14.78;60.30;101550.78;4829988;29;97442;-69
2021/07/17 05:19:41;;;;;;;1999.90;999.90;;;;;;;14.70;60.16;101544.38;4830524;29;97227;-69
2021/07/17 05:22:09;;;;;;;1999.90;999.90;;;;;;;14.63;60.06;101554.94;4829951;29;97933;-69
2021/07/17 05:24:38;;;;;;;1999.90;999.90;;;;;;;14.59;60.17;101553.13;4829182;29;97906;-69
2021/07/17 05:27:06;;;;;;;1999.90;999.90;;;;;;;14.57;60.27;101549.53;4829432;29;97062;-69
2021/07/17 05:29:33;;;;;;;1999.90;999.90;;;;;;;14.98;59.71;101553.75;4830639;29;96814;-69
2021/07/17 05:32:01;;;;;;;1999.90;999.90;;;;;;;14.73;59.91;101551.56;4830291;29;97800;-69
2021/07/17 05:34:30;;;;;;;1999.90;999.90;;;;;;;14.68;60.17;101539.88;4829469;29;97277;-69
2021/07/17 05:36:57;;;;;;;1999.90;999.90;;;;;;;14.63;60.11;101549.59;4827930;29;99145;-69
2021/07/17 05:39:25;;;;;;;1999.90;999.90;;;;;;;14.67;60.13;101535.38;4827332;29;96831;-69
2021/07/17 05:41:54;;;;;;;1999.90;999.90;;;;;;;14.68;60.08;101537.22;4827095;29;99517;-69
2021/07/17 05:44:23;;;;;;;1999.90;999.90;;;;;;;14.70;60.02;101551.53;4855320;28;100063;-69
2021/07/17 05:46:50;;;;;;;1999.90;999.90;;;;;;;14.76;59.87;101547.16;4826724;29;96983;-69
2021/07/17 05:49:18;;;;;;;1999.90;999.90;;;;;;;14.72;60.02;101544.38;4828473;29;97996;-68
2021/07/17 05:51:46;;;;;;;1999.90;999.90;;;;;;;14.67;59.71;101544.34;4860187;28;97823;-68
2021/07/17 05:54:14;;;;;;;1999.90;999.90;;;;;;;14.66;59.89;101550.53;4826703;29;98711;-68
2021/07/17 05:56:42;;;;;;;1999.90;999.90;;;;;;;14.65;59.92;101538.03;4829647;29;97905;-69
2021/07/17 05:59:11;;;;;;;1999.90;999.90;;;;;;;14.64;59.90;101549.66;4829748;29;96932;-67
2021/07/17 06:01:39;;;;;;;1999.90;999.90;;;;;;;14.69;59.68;101545.25;4832462;29;98090;-69
2021/07/17 06:04:08;;;;;;;1999.90;999.90;;;;;;;14.71;59.61;101543.50;4861885;28;100470;-72
2021/07/17 06:06:35;;;;;;;1999.90;999.90;;;;;;;14.73;59.62;101547.13;4831335;29;97159;-71
2021/07/17 06:09:03;;;;;;;1999.90;999.90;;;;;;;14.79;59.58;101555.22;4831269;29;96962;-71
2021/07/17 06:11:31;;;;;;;1999.90;999.90;;;;;;;14.83;59.53;101556.19;4832599;29;97717;-71
2021/07/17 06:13:59;;;;;;;1999.90;999.90;;;;;;;14.85;59.41;101563.38;4833429;29;96929;-71
2021/07/17 06:16:28;;;;;;;1999.90;999.90;;;;;;;14.87;59.40;101552.69;4860199;28;98977;-70
2021/07/17 06:18:56;;;;;;;1999.90;999.90;;;;;;;14.85;59.58;101551.75;4847378;29;96877;-69
2021/07/17 06:21:24;;;;;;;1999.90;999.90;;;;;;;14.91;59.44;101559.91;4862731;28;98331;-70
2021/07/17 06:23:52;;;;;;;1999.90;999.90;;;;;;;14.94;59.25;101563.53;4847030;28;97368;-69
2021/07/17 06:26:20;;;;;;;1999.90;999.90;;;;;;;14.97;59.28;101558.19;4831205;29;97022;-70
2021/07/17 06:28:48;;;;;;;1999.90;999.90;;;;;;;15.01;58.92;101567.19;4831153;29;97577;-70
2021/07/17 06:31:16;;;;;;;1999.90;999.90;;;;;;;15.09;58.98;101573.59;4833473;29;98723;-68
2021/07/17 06:33:46;;;;;;;1999.90;999.90;;;;;;;15.14;58.67;101574.53;4832710;29;97003;-69
2021/07/17 06:36:14;;;;;;;1999.90;999.90;;;;;;;15.17;58.51;101578.16;4832587;29;97021;-70
2021/07/17 06:38:43;;;;;;;1999.90;999.90;;;;;;;15.24;58.97;101568.47;4831800;29;97803;-70
2021/07/17 06:41:15;;;;;;;1999.90;999.90;;;;;;;15.28;58.81;101581.03;4828351;29;99790;-70
2021/07/17 06:43:43;;;;;;;1999.90;999.90;;;;;;;15.30;58.76;101582.00;4830231;29;99720;-70
2021/07/17 06:46:11;;;;;;;1999.90;999.90;;;;;;;15.32;58.87;101576.66;4829783;29;97834;-70
2021/07/17 06:48:39;;;;;;;1999.90;999.90;;;;;;;15.30;58.50;101573.03;4832152;29;97726;-69
2021/07/17 06:51:08;;;;;;;1999.90;999.90;;;;;;;15.31;58.99;101577.50;4856186;28;97925;-70
2021/07/17 06:53:36;;;;;;;1999.90;999.90;;;;;;;15.29;58.57;101566.78;4830440;29;98280;-74
2021/07/17 06:56:05;;;;;;;1999.90;999.90;;;;;;;15.24;58.89;101573.81;4847183;28;97620;-75
2021/07/17 06:58:32;;;;;;;1999.90;999.90;;;;;;;15.21;59.20;101579.13;4855355;28;97662;-77
2021/07/17 07:01:00;;;;;;;1999.90;999.90;;;;;;;15.23;59.02;101581.84;4826374;29;101856;-73
2021/07/17 07:03:29;;;;;;;1999.90;999.90;;;;;;;15.28;58.60;101590.84;4828084;29;99519;-72
2021/07/17 07:05:57;;;;;;;1999.90;999.90;;;;;;;15.32;58.82;101588.25;4861175;28;97784;-73
2021/07/17 07:08:26;;;;;;;1999.90;999.90;;;;;;;15.30;59.11;101595.41;4831474;29;97683;-73
2021/07/17 07:10:54;;;;;;;1999.90;999.90;;;;;;;15.31;59.02;101594.50;4831943;29;99454;-74
2021/07/17 07:13:25;;;;;;;1999.90;999.90;;;;;;;15.36;58.60;101599.94;4815436;29;100733;-73
2021/07/17 07:15:54;;;;;;;1999.90;999.90;;;;;;;15.35;59.08;101598.13;4831433;29;97133;-73
2021/07/17 07:18:21;;;;;;;1999.90;999.90;;;;;;;15.35;58.68;101599.06;4834055;29;97188;-72
2021/07/17 07:20:49;;;;;;;1999.90;999.90;;;;;;;15.38;59.13;101603.53;4833744;29;97900;-72
2021/07/17 07:23:17;;;;;;;1999.90;999.90;;;;;;;15.42;58.66;101595.56;4832722;29;96777;-71
2021/07/17 07:25:46;;;;;;;1999.90;999.90;;;;;;;15.47;58.54;101593.84;4838152;28;97233;-71
2021/07/17 07:28:17;;;;;;;1999.90;999.90;;;;;;;15.47;58.86;101599.22;4852812;28;98565;-70
2021/07/17 07:30:45;;;;;;;1999.90;999.90;;;;;;;15.48;58.55;101590.31;4811054;29;99070;-70
2021/07/17 07:33:13;;;;;;;1999.90;999.90;;;;;;;15.50;59.00;101596.56;4813049;29;99028;-72
2021/07/17 07:35:40;;;;;;;1999.90;999.90;;;;;;;15.49;58.59;101602.81;4825710;29;97442;-71
2021/07/17 07:38:08;;;;;;;1999.90;999.90;;;;;;;15.47;59.12;101604.56;4825318;29;97765;-71
2021/07/17 07:40:37;;;;;;;1999.90;999.90;;;;;;;15.50;58.86;101603.72;4852982;28;99678;-71
2021/07/17 07:43:06;;;;;;;1999.90;999.90;;;;;;;15.55;58.53;101600.22;4826940;29;98752;-70
2021/07/17 07:45:33;;;;;;;1999.90;999.90;;;;;;;15.56;58.56;101607.38;4859013;28;97420;-71
2021/07/17 07:48:01;;;;;;;1999.90;999.90;;;;;;;15.61;58.81;101605.66;4841710;28;97996;-70
2021/07/17 07:50:29;;;;;;;1999.90;999.90;;;;;;;15.65;58.81;101607.50;4828260;29;98771;-70
2021/07/17 07:52:58;;;;;;;1999.90;999.90;;;;;;;15.69;58.36;101601.31;4860086;28;97482;-70
2021/07/17 07:55:26;;;;;;;1999.90;999.90;;;;;;;15.76;58.38;101605.88;4829857;29;97446;-71
2021/07/17 07:57:54;;;;;;;1999.90;999.90;;;;;;;15.80;58.21;101602.34;4830367;29;97973;-71
2021/07/17 08:00:23;;;;;;;1999.90;999.90;;;;;;;15.87;58.10;101604.22;4860543;28;97582;-71
2021/07/17 08:02:52;;;;;;;1999.90;999.90;;;;;;;15.92;58.39;101599.81;4830499;29;98087;-72
2021/07/17 08:05:21;;;;;;;1999.90;999.90;;;;;;;15.99;58.28;101600.81;4831647;29;96975;-71
2021/07/17 08:07:49;;;;;;;1999.90;999.90;;;;;;;16.04;57.93;101600.00;4829025;29;97811;-74
2021/07/17 08:10:16;;;;;;;1999.90;999.90;;;;;;;16.06;57.82;101595.56;4871919;28;99474;-73
2021/07/17 08:12:44;;;;;;;1999.90;999.90;;;;;;;16.07;57.89;101608.09;4844187;29;99009;-74
2021/07/17 08:15:14;;;;;;;1999.90;999.90;;;;;;;16.08;57.90;101601.84;4834692;29;97248;-71
2021/07/17 08:17:43;;;;;;;1999.90;999.90;;;;;;;16.12;58.17;101602.78;4832383;29;97658;-71
2021/07/17 08:20:12;;;;;;;1999.90;999.90;;;;;;;16.15;58.02;101607.28;4832194;29;98259;-71
2021/07/17 08:22:40;;;;;;;1999.90;999.90;;;;;;;16.14;58.39;101605.47;4830638;29;99368;-71
2021/07/17 08:25:09;;;;;;;1999.90;999.90;;;;;;;16.18;58.00;101600.16;4832396;29;97651;-71
2021/07/17 08:27:41;;;;;;;1999.90;999.90;;;;;;;16.24;57.91;101602.91;4829764;29;98233;-70
2021/07/17 08:30:11;;;;;;;1999.90;999.90;;;;;;;16.33;57.87;101610.16;4830676;29;101287;-71
2021/07/17 08:32:56;;;;;;;1999.90;999.90;;;;;;;16.41;57.35;101605.78;4841528;28;97870;-70
2021/07/17 08:35:24;;;;;;;1999.90;999.90;;;;;;;16.46;57.45;101599.56;4829916;29;97683;-70
2021/07/17 08:37:52;;;;;;;1999.90;999.90;;;;;;;16.54;57.37;101605.91;4832220;29;96847;-71
2021/07/17 08:40:20;;;;;;;1999.90;999.90;;;;;;;16.58;57.40;101610.41;4829774;29;100777;-72
2021/07/17 08:42:50;;;;;;;1999.90;999.90;;;;;;;16.63;57.02;101608.69;4830904;29;97841;-72
2021/07/17 08:45:19;;;;;;;1999.90;999.90;;;;;;;16.70;57.07;101609.66;4861486;28;97295;-71
2021/07/17 08:47:47;;;;;;;1999.90;999.90;;;;;;;16.73;57.18;101609.69;4831146;29;97136;-71
2021/07/17 08:50:21;;;;;;;1999.90;999.90;;;;;;;16.77;56.83;101612.44;4844905;29;97788;-72
2021/07/17 08:52:50;;;;;;;1999.90;999.90;;;;;;;16.84;56.73;101621.44;4831058;29;98082;-71
2021/07/17 08:55:18;;;;;;;1999.90;999.90;;;;;;;16.84;56.64;101614.28;4845854;29;97666;-71
2021/07/17 08:57:46;;;;;;;1999.90;999.90;;;;;;;16.86;56.97;101617.91;4827899;29;97041;-71
2021/07/17 09:00:17;;;;;;;1999.90;999.90;;;;;;;16.91;56.83;101616.13;4827119;29;99272;-71
2021/07/17 09:02:55;;;;;;;1999.90;999.90;;;;;;;16.96;56.77;101618.88;4830179;29;97537;-69
2021/07/17 09:05:26;;;;;;;1999.90;999.90;;;;;;;16.98;56.64;101626.06;4827719;29;97865;-70
2021/07/17 09:07:55;;;;;;;1999.90;999.90;;;;;;;17.02;56.46;101621.59;4830880;29;96967;-72
2021/07/17 09:10:30;;;;;;;1999.90;999.90;;;;;;;17.04;56.57;101630.56;4844718;29;97327;-71
2021/07/17 09:13:20;;;;;;;1999.90;999.90;;;;;;;17.08;56.92;101622.56;4860493;28;97711;-71
2021/07/17 09:15:57;;;;;;;1999.90;999.90;;;;;;;17.15;56.49;101623.50;4825415;29;97232;-71
2021/07/17 09:18:28;;;;;;;1999.90;999.90;;;;;;;17.20;56.52;101623.53;4832083;29;97255;-72
2021/07/17 09:21:00;;;;;;;1999.90;999.90;;;;;;;17.22;56.40;101622.66;4830782;29;97638;-72
2021/07/17 09:23:29;;;;;;;1999.90;999.90;;;;;;;17.27;56.28;101620.00;4830051;29;98633;-71
2021/07/17 09:25:57;;;;;;;1999.90;999.90;;;;;;;17.31;56.26;101619.16;4828971;29;97474;-71
2021/07/17 09:28:27;;;;;;;1999.90;999.90;;;;;;;17.36;56.21;101617.38;4814442;29;97387;-72
2021/07/17 09:30:56;;;;;;;1999.90;999.90;;;;;;;17.37;56.32;101620.06;4829538;29;98750;-72
2021/07/17 09:33:25;;;;;;;1999.90;999.90;;;;;;;17.36;56.34;101623.66;4858968;28;97231;-70
2021/07/17 09:35:54;;;;;;;1999.90;999.90;;;;;;;17.34;56.33;101612.00;4831510;29;97211;-71
2021/07/17 09:38:25;;;;;;;1999.90;999.90;;;;;;;17.40;56.48;101614.72;4830973;29;97573;-71
2021/07/17 09:40:55;;;;;;;1999.90;999.90;;;;;;;17.49;56.09;101612.09;4831603;29;96753;-70
2021/07/17 09:43:35;;;;;;;1999.90;999.90;;;;;;;17.55;56.27;101612.13;4830226;29;97832;-71
2021/07/17 09:46:15;;;;;;;1999.90;999.90;;;;;;;17.53;56.50;101611.22;4830949;29;97267;-71
2021/07/17 09:48:47;;;;;;;1999.90;999.90;;;;;;;17.59;56.05;101599.59;4829942;29;97130;-71
2021/07/17 09:51:19;;;;;;;1999.90;999.90;;;;;;;17.68;55.97;101608.63;4844733;29;99192;-71
2021/07/17 09:53:50;;;;;;;1999.90;999.90;;;;;;;17.75;55.85;101598.78;4830198;29;97700;-71
2021/07/17 09:56:19;;;;;;;1999.90;999.90;;;;;;;17.77;56.00;101595.22;4859655;28;97367;-71
2021/07/17 09:58:47;;;;;;;1999.90;999.90;;;;;;;17.87;55.75;101599.75;4828778;29;97072;-71
2021/07/17 10:01:17;;;;;;;1999.90;999.90;;;;;;;17.93;55.64;101593.47;4828717;29;99040;-71
2021/07/17 10:03:47;;;;;;;1999.90;999.90;;;;;;;18.06;55.31;101589.09;4843488;29;98515;-71
2021/07/17 10:06:41;;;;;;;1999.90;999.90;;;;;;;18.06;56.15;101586.38;4829355;29;96836;-71
2021/07/17 10:09:28;;;;;;;1999.90;999.90;;;;;;;18.18;55.89;101589.09;4843950;29;97328;-71
2021/07/17 10:12:00;;;;;;;1999.90;999.90;;;;;;;18.23;55.05;101588.22;4828696;29;97714;-72
2021/07/17 10:14:32;;;;;;;1999.90;999.90;;;;;;;18.32;55.16;101585.53;4829302;29;98640;-71
2021/07/17 10:17:08;;;;;;;1999.90;999.90;;;;;;;18.43;55.07;101585.56;4830987;29;97072;-70
2021/07/17 10:19:36;;;;;;;1999.90;999.90;;;;;;;18.51;54.87;101570.31;4831872;29;96822;-71
2021/07/17 10:22:05;;;;;;;1999.90;999.90;;;;;;;18.58;54.73;101581.09;4828075;29;99706;-71
2021/07/17 10:24:35;;;;;;;1999.90;999.90;;;;;;;18.63;54.25;101578.38;4830574;29;97860;-71
2021/07/17 10:27:03;;;;;;;1999.90;999.90;;;;;;;18.68;54.13;101563.09;4829253;29;97908;-71
2021/07/17 10:29:31;;;;;;;1999.90;999.90;;;;;;;18.72;54.09;101567.66;4828046;29;96922;-70
2021/07/17 10:32:00;;;;;;;1999.90;999.90;;;;;;;18.78;54.23;101560.47;4831590;28;97977;-70
2021/07/17 10:34:29;;;;;;;1999.90;999.90;;;;;;;18.83;54.12;101555.97;4844357;29;99053;-71
2021/07/17 10:37:02;;;;;;;1999.90;999.90;;;;;;;18.88;53.94;101554.16;4830306;29;97533;-71
2021/07/17 10:39:33;;;;;;;1999.90;999.90;;;;;;;18.92;53.71;101549.66;4844455;29;99532;-71
2021/07/17 10:42:10;;;;;;;1999.90;999.90;;;;;;;18.97;53.65;101543.34;4845051;29;98739;-72
2021/07/17 10:44:39;;;;;;;1999.90;999.90;;;;;;;19.04;53.58;101542.44;4830666;29;96900;-71
2021/07/17 10:47:08;;;;;;;1999.90;999.90;;;;;;;19.11;53.69;101532.56;4833947;29;97099;-71
2021/07/17 10:49:39;;;;;;;1999.90;999.90;;;;;;;19.21;53.64;101526.22;4817458;29;97521;-71
2021/07/17 10:52:08;;;;;;;1999.90;999.90;;;;;;;19.30;53.10;101526.19;4832357;29;97440;-70
2021/07/17 10:54:37;;;;;;;1999.90;999.90;;;;;;;19.40;52.94;101522.59;4862223;28;98792;-72